Baileyville, IL

12:56 AM CDT on July 30, 2016 (GMT -0500)
Albertus

Weather History for KFEP - January, 2013

Change the Weather History Date:

Monday, January 7, 2013

  Actual Average Record
Temperature  
Mean Temperature 26 °F -  
Max Temperature 38 °F 27 °F 57 °F (2008)
Min Temperature 13 °F 10 °F -19 °F (1988)
Degree Days  
Heating Degree Days 40    
Moisture  
Dew Point 23 °F    
Average Humidity 80    
Maximum Humidity 87    
Minimum Humidity 70    
Precipitation  
Precipitation 0.00 in - - ()
Sea Level Pressure  
Sea Level Pressure 30.16 in    
Wind  
Wind Speed 12 mph (South)    
Max Wind Speed 26 mph    
Max Gust Speed 34 mph    
Visibility 10 miles    
Events      
Averages and records for this station are not official NWS values.
T = Trace of Precipitation, MM = Missing Value Source: NWS Daily Summary

Daily Weather History Graph

Daily Weather History Graph

Search for Another Location

Airport or City:

Trip Planner

Search our weather history database for the weather conditions in past years. The results will help you decide how hot, cold, wet, or windy it might be!

Date:

Astronomy

Jan. 07, 2013 Rise Set
Actual Time 7:26 AM CST 4:42 PM CST
Civil Twilight 6:55 AM CST 5:14 PM CST
Nautical Twilight 6:20 AM CST 5:49 PM CST
Astronomical Twilight 5:46 AM CST 6:23 PM CST
Moon 2:49 AM CST (1/7) 12:54 PM CST (1/7)
Length of Visible Light 10h 18m
Length of Day
9h 15m
Waning Crescent, 22% of the Moon is Illuminated
Jan 7
Waning Crescent
Jan 11
New
Jan 18
First Quarter
Jan 26
Full
Feb 3
Last Quarter

Hourly Weather History & Observations

Time (CST) Temp. Windchill Dew Point Humidity Pressure Visibility Wind Dir Wind Speed Gust Speed Precip Events Conditions
12:15 AM 13.6 °F 7.7 °F 10.2 °F 86% 30.29 in 10.0 mi SSE 3.5 mph - N/A   Clear
12:35 AM 16.2 °F 9.0 °F 12.6 °F 86% 30.29 in 10.0 mi SSE 4.6 mph - N/A   Clear
12:55 AM 14.0 °F 8.2 °F 10.4 °F 86% 30.29 in 10.0 mi South 3.5 mph - N/A   Clear
1:15 AM 14.7 °F 4.8 °F 11.1 °F 86% 30.28 in 10.0 mi SSE 6.9 mph - N/A   Clear
1:35 AM 14.0 °F 5.1 °F 10.6 °F 86% 30.28 in 10.0 mi SSE 5.8 mph - N/A   Clear
1:55 AM 16.5 °F 4.3 °F 13.1 °F 86% 30.28 in 10.0 mi South 10.4 mph - N/A   Clear
2:15 AM 15.8 °F 7.2 °F 12.2 °F 86% 30.28 in 10.0 mi SSE 5.8 mph - N/A   Clear
2:35 AM 16.2 °F 6.5 °F 12.6 °F 86% 30.28 in 10.0 mi South 6.9 mph - N/A   Clear
2:55 AM 18.5 °F 6.8 °F 14.0 °F 83% 30.28 in 10.0 mi South 10.4 mph - N/A   Clear
3:15 AM 19.9 °F 6.7 °F 14.9 °F 81% 30.28 in 10.0 mi South 13.8 mph - N/A   Clear
3:35 AM 18.5 °F 4.9 °F 14.0 °F 83% 30.27 in 10.0 mi South 13.8 mph - N/A   Clear
3:55 AM 18.5 °F 7.5 °F 14.5 °F 85% 30.27 in 10.0 mi SSE 9.2 mph - N/A   Clear
4:15 AM 18.5 °F 6.8 °F 14.4 °F 84% 30.27 in 10.0 mi SSE 10.4 mph - N/A   Clear
4:35 AM 21.2 °F 9.5 °F 15.8 °F 80% 30.26 in 10.0 mi South 11.5 mph - N/A   Clear
4:55 AM 19.8 °F 7.7 °F 15.3 °F 83% 30.26 in 10.0 mi South 11.5 mph - N/A   Clear
5:15 AM 19.9 °F 7.3 °F 15.4 °F 83% 30.25 in 10.0 mi South 12.7 mph - N/A   Clear
5:35 AM 20.8 °F 8.4 °F 16.5 °F 83% 30.25 in 10.0 mi South 12.7 mph - N/A   Clear
5:55 AM 20.7 °F 9.5 °F 16.3 °F 83% 30.25 in 10.0 mi SSE 10.4 mph - N/A   Clear
6:15 AM 18.5 °F 6.1 °F 14.7 °F 85% 30.24 in 10.0 mi SSE 11.5 mph - N/A   Clear
6:35 AM 19.2 °F 5.8 °F 15.3 °F 85% 30.24 in 10.0 mi SSE 13.8 mph - N/A   Clear
6:55 AM 19.6 °F 5.7 °F 15.6 °F 85% 30.22 in 10.0 mi SSE 15.0 mph - N/A   Clear
7:15 AM 19.9 °F 6.7 °F 15.8 °F 84% 30.22 in 10.0 mi SSE 13.8 mph - N/A   Clear
7:35 AM 21.2 °F 7.8 °F 16.7 °F 83% 30.21 in 10.0 mi SSE 15.0 mph - N/A   Clear
7:55 AM 21.7 °F 8.5 °F 17.2 °F 83% 30.21 in 10.0 mi South 15.0 mph - N/A   Clear
8:15 AM 23.7 °F 11.0 °F 18.9 °F 82% 30.21 in 10.0 mi South 15.0 mph - N/A   Clear
8:35 AM 23.9 °F 9.9 °F 18.9 °F 81% 30.21 in 10.0 mi South 18.4 mph 21.9 mph N/A   Clear
9:15 AM 27.1 °F 12.7 °F 21.2 °F 78% 30.20 in 10.0 mi South 23.0 mph 28.8 mph N/A   Clear
9:35 AM 28.8 °F 15.2 °F 22.1 °F 76% 30.20 in 10.0 mi South 21.9 mph 31.1 mph N/A   Clear
9:55 AM 28.8 °F 14.9 °F 21.9 °F 76% 30.20 in 10.0 mi South 23.0 mph 27.6 mph N/A   Clear
10:15 AM 30.9 °F 18.4 °F 23.7 °F 75% 30.19 in 10.0 mi South 20.7 mph 29.9 mph N/A   Clear
10:35 AM 31.5 °F 19.4 °F 23.9 °F 74% 30.19 in 10.0 mi South 19.6 mph 29.9 mph N/A   Clear
10:55 AM 33.8 °F 21.9 °F 25.7 °F 72% 30.17 in 10.0 mi South 21.9 mph 29.9 mph N/A   Clear
11:15 AM 33.8 °F 20.8 °F 24.8 °F 70% 30.15 in 10.0 mi South 26.5 mph 34.5 mph N/A   Clear
11:35 AM 33.8 °F 21.0 °F 25.0 °F 70% 30.13 in 10.0 mi South 25.3 mph 32.2 mph N/A   Clear
11:55 AM 33.8 °F 21.0 °F 25.3 °F 71% 30.12 in 10.0 mi South 25.3 mph 32.2 mph N/A   Clear
12:35 PM 33.8 °F 21.6 °F 25.5 °F 72% 30.11 in 10.0 mi South 23.0 mph 29.9 mph N/A   Clear
12:55 PM 35.6 °F 24.2 °F 26.6 °F 70% 30.10 in 10.0 mi South 21.9 mph 28.8 mph N/A   Clear
1:15 PM 34.9 °F 23.0 °F 27.1 °F 73% 30.08 in 10.0 mi South 23.0 mph 28.8 mph N/A   Clear
1:35 PM 35.6 °F 23.7 °F 28.4 °F 75% 30.07 in 10.0 mi South 24.2 mph 31.1 mph N/A   Clear
1:55 PM 36.1 °F 24.7 °F 27.5 °F 71% 30.07 in 10.0 mi South 23.0 mph - N/A   Clear
2:15 PM 36.7 °F 26.0 °F 27.7 °F 70% 30.06 in 10.0 mi South 20.7 mph 27.6 mph N/A   Clear
2:35 PM 37.4 °F 26.6 °F 28.8 °F 71% 30.06 in 10.0 mi South 21.9 mph 31.1 mph N/A   Clear
2:55 PM 38.1 °F 28.8 °F 29.5 °F 71% 30.07 in 10.0 mi South 17.3 mph 26.5 mph N/A   Clear
3:15 PM 36.9 °F 26.5 °F 28.8 °F 72% 30.07 in 10.0 mi South 19.6 mph 24.2 mph N/A   Clear
3:35 PM 36.5 °F 27.8 °F 28.2 °F 72% 30.07 in 10.0 mi South 13.8 mph 21.9 mph N/A   Clear
3:55 PM 36.5 °F 27.8 °F 28.2 °F 72% 30.08 in 10.0 mi SSW 13.8 mph - N/A   Clear
4:15 PM 36.1 °F 26.9 °F 28.2 °F 73% 30.08 in 10.0 mi SSW 15.0 mph 19.6 mph N/A   Clear
4:35 PM 36.1 °F 26.5 °F 28.4 °F 73% 30.08 in 10.0 mi SSW 16.1 mph - N/A   Clear
4:55 PM 35.2 °F 26.6 °F 28.2 °F 76% 30.08 in 10.0 mi South 12.7 mph - N/A   Clear
5:15 PM 34.9 °F 25.3 °F 28.0 °F 76% 30.08 in 10.0 mi South 15.0 mph - N/A   Clear
5:35 PM 33.8 °F 25.8 °F 27.5 °F 78% 30.08 in 10.0 mi South 10.4 mph - N/A   Clear
5:55 PM 33.8 °F 26.4 °F 28.4 °F 81% 30.09 in 10.0 mi South 9.2 mph - N/A   Clear
6:15 PM 33.8 °F 26.4 °F 28.9 °F 82% 30.08 in 10.0 mi South 9.2 mph - N/A   Clear
6:35 PM 33.8 °F 26.4 °F 29.1 °F 83% 30.08 in 10.0 mi South 9.2 mph - N/A   Clear
6:55 PM 33.8 °F 25.8 °F 29.1 °F 83% 30.08 in 10.0 mi South 10.4 mph - N/A   Clear
7:15 PM 33.8 °F 27.0 °F 29.3 °F 84% 30.08 in 10.0 mi South 8.1 mph - N/A   Clear
7:35 PM 33.8 °F 26.4 °F 29.3 °F 84% 30.08 in 10.0 mi South 9.2 mph - N/A   Clear
7:55 PM 33.8 °F 26.4 °F 29.3 °F 84% 30.07 in 10.0 mi South 9.2 mph - N/A   Clear
8:15 PM 33.8 °F 26.4 °F 29.3 °F 84% 30.07 in 10.0 mi South 9.2 mph - N/A   Clear
8:35 PM 33.8 °F 25.3 °F 29.3 °F 84% 30.08 in 10.0 mi South 11.5 mph - N/A   Clear
8:55 PM 33.8 °F 25.8 °F 29.7 °F 85% 30.08 in 10.0 mi South 10.4 mph - N/A   Clear
9:15 PM 33.8 °F 29.6 °F 29.7 °F 85% 30.08 in 10.0 mi SSW 4.6 mph - N/A   Clear
9:35 PM 31.8 °F 25.4 °F 27.5 °F 84% 30.08 in 10.0 mi South 6.9 mph - N/A   Clear
9:55 PM 31.5 °F 24.2 °F 27.5 °F 85% 30.08 in 10.0 mi South 8.1 mph - N/A   Clear
10:15 PM 31.5 °F 22.3 °F 27.5 °F 85% 30.07 in 7.0 mi South 11.5 mph - N/A   Clear
10:35 PM 31.5 °F 21.8 °F 27.5 °F 85% 30.08 in 7.0 mi South 12.7 mph - N/A   Clear
10:55 PM 32.0 °F 21.6 °F 28.4 °F 87% 30.07 in 7.0 mi South 15.0 mph - N/A   Clear
11:15 PM 33.6 °F 23.7 °F 30.0 °F 87% 30.07 in 7.0 mi South 15.0 mph - N/A   Clear
11:35 PM 33.8 °F 24.8 °F 30.0 °F 86% 30.07 in 7.0 mi South 12.7 mph - N/A   Clear
11:55 PM 33.8 °F 24.3 °F 30.2 °F 87% 30.07 in 7.0 mi South 13.8 mph - N/A   Clear